sensor_id;sensor_type;location;lat;lon;timestamp;pressure;altitude;pressure_sealevel;temperature;humidity
36748;BME280;22716;51.556;5.080;2023-02-16T00:01:16;101692.03;;;7.15;100.00
36748;BME280;22716;51.556;5.080;2023-02-16T00:03:46;101703.44;;;7.22;100.00
36748;BME280;22716;51.556;5.080;2023-02-16T00:06:15;101705.13;;;7.18;100.00
36748;BME280;22716;51.556;5.080;2023-02-16T00:08:45;101698.16;;;7.17;100.00
36748;BME280;22716;51.556;5.080;2023-02-16T00:11:19;101709.41;;;7.16;100.00
36748;BME280;22716;51.556;5.080;2023-02-16T00:14:02;101704.19;;;7.15;100.00
36748;BME280;22716;51.556;5.080;2023-02-16T00:16:31;101691.84;;;7.05;100.00
36748;BME280;22716;51.556;5.080;2023-02-16T00:19:00;101701.41;;;7.04;100.00
36748;BME280;22716;51.556;5.080;2023-02-16T00:21:29;101701.34;;;7.01;100.00
36748;BME280;22716;51.556;5.080;2023-02-16T00:23:57;101703.03;;;6.98;100.00
36748;BME280;22716;51.556;5.080;2023-02-16T00:26:30;101697.81;;;6.99;100.00
36748;BME280;22716;51.556;5.080;2023-02-16T00:29:03;101706.47;;;6.97;100.00
36748;BME280;22716;51.556;5.080;2023-02-16T00:31:32;101686.34;;;6.88;100.00
36748;BME280;22716;51.556;5.080;2023-02-16T00:34:21;101698.59;;;6.92;100.00
36748;BME280;22716;51.556;5.080;2023-02-16T00:36:52;101688.09;;;6.89;100.00
36748;BME280;22716;51.556;5.080;2023-02-16T00:39:21;101652.97;;;6.67;100.00
36748;BME280;22716;51.556;5.080;2023-02-16T00:41:53;101687.19;;;6.87;100.00
36748;BME280;22716;51.556;5.080;2023-02-16T00:44:28;101689.72;;;6.84;100.00
36748;BME280;22716;51.556;5.080;2023-02-16T00:47:00;101684.50;;;6.84;100.00
36748;BME280;22716;51.556;5.080;2023-02-16T00:49:29;101680.19;;;6.83;100.00
36748;BME280;22716;51.556;5.080;2023-02-16T00:51:57;101689.72;;;6.83;100.00
36748;BME280;22716;51.556;5.080;2023-02-16T00:54:26;101686.22;;;6.81;100.00
36748;BME280;22716;51.556;5.080;2023-02-16T00:56:58;101666.09;;;6.72;100.00
36748;BME280;22716;51.556;5.080;2023-02-16T00:59:26;101690.56;;;6.82;100.00
36748;BME280;22716;51.556;5.080;2023-02-16T01:01:55;101687.94;;;6.82;100.00
36748;BME280;22716;51.556;5.080;2023-02-16T01:04:24;101680.94;;;6.78;100.00
36748;BME280;22716;51.556;5.080;2023-02-16T01:06:53;101680.13;;;6.80;100.00
36748;BME280;22716;51.556;5.080;2023-02-16T01:09:34;101672.25;;;6.78;100.00
36748;BME280;22716;51.556;5.080;2023-02-16T01:12:20;101668.69;;;6.72;100.00
36748;BME280;22716;51.556;5.080;2023-02-16T01:14:51;101678.31;;;6.76;100.00
36748;BME280;22716;51.556;5.080;2023-02-16T01:17:21;101677.41;;;6.74;100.00
36748;BME280;22716;51.556;5.080;2023-02-16T01:19:50;101664.28;;;6.69;100.00
36748;BME280;22716;51.556;5.080;2023-02-16T01:22:19;101670.50;;;6.76;100.00
36748;BME280;22716;51.556;5.080;2023-02-16T01:24:47;101672.16;;;6.72;100.00
36748;BME280;22716;51.556;5.080;2023-02-16T01:27:20;101663.50;;;6.72;100.00
36748;BME280;22716;51.556;5.080;2023-02-16T01:29:49;101663.50;;;6.72;100.00
36748;BME280;22716;51.556;5.080;2023-02-16T01:32:18;101656.50;;;6.71;100.00
36748;BME280;22716;51.556;5.080;2023-02-16T01:34:46;101647.75;;;6.66;100.00
36748;BME280;22716;51.556;5.080;2023-02-16T01:37:15;101660.00;;;6.73;100.00
36748;BME280;22716;51.556;5.080;2023-02-16T01:39:44;101649.47;;;6.67;100.00
36748;BME280;22716;51.556;5.080;2023-02-16T01:42:26;101646.88;;;6.65;100.00
36748;BME280;22716;51.556;5.080;2023-02-16T01:44:59;101646.91;;;6.68;100.00
36748;BME280;22716;51.556;5.080;2023-02-16T01:47:33;101652.16;;;6.70;100.00
36748;BME280;22716;51.556;5.080;2023-02-16T01:50:14;101649.53;;;6.68;100.00
36748;BME280;22716;51.556;5.080;2023-02-16T01:52:48;101652.13;;;6.68;100.00
36748;BME280;22716;51.556;5.080;2023-02-16T01:55:21;101648.59;;;6.65;100.00
36748;BME280;22716;51.556;5.080;2023-02-16T01:57:57;101649.44;;;6.64;100.00
36748;BME280;22716;51.556;5.080;2023-02-16T02:00:30;101652.03;;;6.64;100.00
36748;BME280;22716;51.556;5.080;2023-02-16T02:03:20;101642.44;;;6.61;100.00
36748;BME280;22716;51.556;5.080;2023-02-16T02:06:04;101630.25;;;6.59;100.00
36748;BME280;22716;51.556;5.080;2023-02-16T02:08:39;101635.41;;;6.56;100.00
36748;BME280;22716;51.556;5.080;2023-02-16T02:11:14;101631.97;;;6.57;100.00
36748;BME280;22716;51.556;5.080;2023-02-16T02:13:55;101630.19;;;6.54;100.00
36748;BME280;22716;51.556;5.080;2023-02-16T02:16:27;101600.44;;;6.43;100.00
36748;BME280;22716;51.556;5.080;2023-02-16T02:18:56;101631.09;;;6.58;100.00
36748;BME280;22716;51.556;5.080;2023-02-16T02:21:41;101618.06;;;6.56;100.00
36748;BME280;22716;51.556;5.080;2023-02-16T02:24:51;101611.97;;;6.56;100.00
36748;BME280;22716;51.556;5.080;2023-02-16T02:27:26;101606.75;;;6.56;100.00
36748;BME280;22716;51.556;5.080;2023-02-16T02:30:18;101615.53;;;6.61;100.00
36748;BME280;22716;51.556;5.080;2023-02-16T02:33:03;101611.19;;;6.60;100.00
36748;BME280;22716;51.556;5.080;2023-02-16T02:35:44;101598.00;;;6.51;100.00
36748;BME280;22716;51.556;5.080;2023-02-16T02:38:23;101619.81;;;6.57;100.00
36748;BME280;22716;51.556;5.080;2023-02-16T02:40:58;101596.22;;;6.48;100.00
36748;BME280;22716;51.556;5.080;2023-02-16T02:43:36;101611.03;;;6.52;100.00
36748;BME280;22716;51.556;5.080;2023-02-16T02:46:09;101609.28;;;6.51;100.00
36748;BME280;22716;51.556;5.080;2023-02-16T02:48:40;101598.84;;;6.50;100.00
36748;BME280;22716;51.556;5.080;2023-02-16T02:51:11;101600.50;;;6.46;100.00
36748;BME280;22716;51.556;5.080;2023-02-16T02:53:56;101601.38;;;6.47;100.00
36748;BME280;22716;51.556;5.080;2023-02-16T02:56:44;101599.59;;;6.43;100.00
36748;BME280;22716;51.556;5.080;2023-02-16T02:59:30;101583.88;;;6.38;100.00
36748;BME280;22716;51.556;5.080;2023-02-16T03:02:13;101582.16;;;6.39;100.00
36748;BME280;22716;51.556;5.080;2023-02-16T03:04:44;101587.41;;;6.42;100.00
36748;BME280;22716;51.556;5.080;2023-02-16T03:07:14;101589.13;;;6.40;100.00
36748;BME280;22716;51.556;5.080;2023-02-16T03:09:44;101591.78;;;6.43;100.00
36748;BME280;22716;51.556;5.080;2023-02-16T03:12:33;101584.75;;;6.39;100.00
36748;BME280;22716;51.556;5.080;2023-02-16T03:15:15;101578.66;;;6.38;100.00
36748;BME280;22716;51.556;5.080;2023-02-16T03:17:45;101563.88;;;6.36;100.00
36748;BME280;22716;51.556;5.080;2023-02-16T03:20:27;101576.84;;;6.34;100.00
36748;BME280;22716;51.556;5.080;2023-02-16T03:23:08;101564.75;;;6.36;100.00
36748;BME280;22716;51.556;5.080;2023-02-16T03:25:51;101567.25;;;6.32;100.00
36748;BME280;22716;51.556;5.080;2023-02-16T03:28:34;101559.50;;;6.33;100.00
36748;BME280;22716;51.556;5.080;2023-02-16T03:31:22;101550.75;;;6.28;100.00
36748;BME280;22716;51.556;5.080;2023-02-16T03:33:52;101561.28;;;6.36;100.00
36748;BME280;22716;51.556;5.080;2023-02-16T03:36:22;101555.97;;;6.30;100.00
36748;BME280;22716;51.556;5.080;2023-02-16T03:38:53;101555.97;;;6.30;100.00
36748;BME280;22716;51.556;5.080;2023-02-16T03:41:23;101567.38;;;6.38;100.00
36748;BME280;22716;51.556;5.080;2023-02-16T03:43:52;101565.66;;;6.38;100.00
36748;BME280;22716;51.556;5.080;2023-02-16T03:46:23;101560.44;;;6.37;100.00
36748;BME280;22716;51.556;5.080;2023-02-16T03:48:52;101564.69;;;6.33;100.00
36748;BME280;22716;51.556;5.080;2023-02-16T03:51:21;101548.97;;;6.29;100.00
36748;BME280;22716;51.556;5.080;2023-02-16T03:53:50;101570.03;;;6.41;100.00
36748;BME280;22716;51.556;5.080;2023-02-16T03:56:19;101562.13;;;6.35;100.00
36748;BME280;22716;51.556;5.080;2023-02-16T03:58:48;101570.84;;;6.38;100.00
36748;BME280;22716;51.556;5.080;2023-02-16T04:01:17;101582.16;;;6.39;100.00
36748;BME280;22716;51.556;5.080;2023-02-16T04:03:48;101581.25;;;6.37;100.00
36748;BME280;22716;51.556;5.080;2023-02-16T04:06:17;101582.16;;;6.40;100.00
36748;BME280;22716;51.556;5.080;2023-02-16T04:08:46;101573.50;;;6.41;100.00
36748;BME280;22716;51.556;5.080;2023-02-16T04:11:15;101568.34;;;6.43;100.00
36748;BME280;22716;51.556;5.080;2023-02-16T04:13:56;101582.28;;;6.46;100.00
36748;BME280;22716;51.556;5.080;2023-02-16T04:16:25;101585.81;;;6.50;100.00
36748;BME280;22716;51.556;5.080;2023-02-16T04:18:57;101590.97;;;6.47;100.00
36748;BME280;22716;51.556;5.080;2023-02-16T04:21:25;101575.28;;;6.42;100.00
36748;BME280;22716;51.556;5.080;2023-02-16T04:23:54;101574.34;;;6.40;100.00
36748;BME280;22716;51.556;5.080;2023-02-16T04:26:23;101580.44;;;6.41;100.00
36748;BME280;22716;51.556;5.080;2023-02-16T04:28:51;101567.47;;;6.42;100.00
36748;BME280;22716;51.556;5.080;2023-02-16T04:31:20;101554.31;;;6.35;100.00
36748;BME280;22716;51.556;5.080;2023-02-16T04:33:49;101567.53;;;6.45;100.00
36748;BME280;22716;51.556;5.080;2023-02-16T04:36:20;101582.28;;;6.46;100.00
36748;BME280;22716;51.556;5.080;2023-02-16T04:38:49;101588.34;;;6.45;100.00
36748;BME280;22716;51.556;5.080;2023-02-16T04:41:18;101587.47;;;6.45;100.00
36748;BME280;22716;51.556;5.080;2023-02-16T04:43:46;101581.38;;;6.44;100.00
36748;BME280;22716;51.556;5.080;2023-02-16T04:46:15;101557.06;;;6.42;100.00
36748;BME280;22716;51.556;5.080;2023-02-16T04:48:44;101561.44;;;6.45;100.00
36748;BME280;22716;51.556;5.080;2023-02-16T04:51:13;101584.03;;;6.46;100.00
36748;BME280;22716;51.556;5.080;2023-02-16T04:53:44;101574.47;;;6.45;100.00
36748;BME280;22716;51.556;5.080;2023-02-16T04:56:13;101566.66;;;6.45;100.00
36748;BME280;22716;51.556;5.080;2023-02-16T04:58:41;101571.84;;;6.45;100.00
36748;BME280;22716;51.556;5.080;2023-02-16T05:01:17;101578.81;;;6.46;100.00
36748;BME280;22716;51.556;5.080;2023-02-16T05:03:46;101574.50;;;6.48;100.00
36748;BME280;22716;51.556;5.080;2023-02-16T05:06:15;101563.22;;;6.49;100.00
36748;BME280;22716;51.556;5.080;2023-02-16T05:08:47;101564.16;;;6.51;100.00
36748;BME280;22716;51.556;5.080;2023-02-16T05:11:16;101577.22;;;6.55;100.00
36748;BME280;22716;51.556;5.080;2023-02-16T05:13:58;101578.13;;;6.56;100.00
36748;BME280;22716;51.556;5.080;2023-02-16T05:16:40;101572.91;;;6.56;100.00
36748;BME280;22716;51.556;5.080;2023-02-16T05:19:09;101570.34;;;6.57;100.00
36748;BME280;22716;51.556;5.080;2023-02-16T05:21:38;101565.16;;;6.57;100.00
36748;BME280;22716;51.556;5.080;2023-02-16T05:24:10;101570.41;;;6.62;100.00
36748;BME280;22716;51.556;5.080;2023-02-16T05:26:39;101566.94;;;6.61;100.00
36748;BME280;22716;51.556;5.080;2023-02-16T05:29:08;101553.91;;;6.61;100.00
36748;BME280;22716;51.556;5.080;2023-02-16T05:31:36;101546.91;;;6.57;100.00
36748;BME280;22716;51.556;5.080;2023-02-16T05:34:05;101557.38;;;6.60;100.00
36748;BME280;22716;51.556;5.080;2023-02-16T05:36:34;101545.06;;;6.52;100.00
36748;BME280;22716;51.556;5.080;2023-02-16T05:39:03;101553.03;;;6.61;100.00
36748;BME280;22716;51.556;5.080;2023-02-16T05:41:34;101565.19;;;6.60;100.00
36748;BME280;22716;51.556;5.080;2023-02-16T05:44:05;101559.09;;;6.60;100.00
36748;BME280;22716;51.556;5.080;2023-02-16T05:46:36;101559.13;;;6.61;100.00
36748;BME280;22716;51.556;5.080;2023-02-16T05:49:06;101552.19;;;6.60;100.00
36748;BME280;22716;51.556;5.080;2023-02-16T05:51:36;101543.44;;;6.57;100.00
36748;BME280;22716;51.556;5.080;2023-02-16T05:54:05;101539.19;;;6.63;100.00
36748;BME280;22716;51.556;5.080;2023-02-16T05:56:38;101561.00;;;6.70;100.00
36748;BME280;22716;51.556;5.080;2023-02-16T05:59:06;101554.06;;;6.69;100.00
36748;BME280;22716;51.556;5.080;2023-02-16T06:01:35;101541.88;;;6.69;100.00
36748;BME280;22716;51.556;5.080;2023-02-16T06:04:07;101538.47;;;6.72;100.00
36748;BME280;22716;51.556;5.080;2023-02-16T06:06:36;101539.31;;;6.72;100.00
36748;BME280;22716;51.556;5.080;2023-02-16T06:09:07;101541.09;;;6.73;100.00
36748;BME280;22716;51.556;5.080;2023-02-16T06:11:39;101532.25;;;6.64;100.00
36748;BME280;22716;51.556;5.080;2023-02-16T06:14:09;101555.03;;;6.77;100.00
36748;BME280;22716;51.556;5.080;2023-02-16T06:16:40;101552.41;;;6.75;100.00
36748;BME280;22716;51.556;5.080;2023-02-16T06:19:09;101564.63;;;6.78;100.00
36748;BME280;22716;51.556;5.080;2023-02-16T06:21:39;101564.63;;;6.78;100.00
36748;BME280;22716;51.556;5.080;2023-02-16T06:24:09;101567.28;;;6.83;100.00
36748;BME280;22716;51.556;5.080;2023-02-16T06:26:41;101569.09;;;6.87;100.00
36748;BME280;22716;51.556;5.080;2023-02-16T06:29:10;101571.72;;;6.87;100.00
36748;BME280;22716;51.556;5.080;2023-02-16T06:31:38;101562.97;;;6.85;100.00
36748;BME280;22716;51.556;5.080;2023-02-16T06:34:07;101572.59;;;6.89;100.00
36748;BME280;22716;51.556;5.080;2023-02-16T06:36:36;101562.19;;;6.90;100.00
36748;BME280;22716;51.556;5.080;2023-02-16T06:39:05;101564.75;;;6.87;100.00
36748;BME280;22716;51.556;5.080;2023-02-16T06:41:33;101572.59;;;6.90;100.00
36748;BME280;22716;51.556;5.080;2023-02-16T06:44:09;101586.53;;;6.91;100.00
36748;BME280;22716;51.556;5.080;2023-02-16T06:46:39;101586.53;;;6.91;100.00
36748;BME280;22716;51.556;5.080;2023-02-16T06:49:11;101587.44;;;6.93;100.00
36748;BME280;22716;51.556;5.080;2023-02-16T06:51:40;101597.81;;;6.90;100.00
36748;BME280;22716;51.556;5.080;2023-02-16T06:54:09;101590.06;;;6.94;100.00
36748;BME280;22716;51.556;5.080;2023-02-16T06:56:39;101596.16;;;6.96;100.00
36748;BME280;22716;51.556;5.080;2023-02-16T06:59:11;101599.63;;;6.95;100.00
36748;BME280;22716;51.556;5.080;2023-02-16T07:01:40;101592.66;;;6.96;100.00
36748;BME280;22716;51.556;5.080;2023-02-16T07:04:09;101586.59;;;6.95;100.00
36748;BME280;22716;51.556;5.080;2023-02-16T07:06:38;101596.19;;;6.98;100.00
36748;BME280;22716;51.556;5.080;2023-02-16T07:09:07;101580.47;;;6.92;100.00
36748;BME280;22716;51.556;5.080;2023-02-16T07:11:36;101591.00;;;6.98;100.00
36748;BME280;22716;51.556;5.080;2023-02-16T07:14:04;101590.09;;;6.97;100.00
36748;BME280;22716;51.556;5.080;2023-02-16T07:16:36;101582.28;;;6.99;100.00
36748;BME280;22716;51.556;5.080;2023-02-16T07:19:04;101580.50;;;6.95;100.00
36748;BME280;22716;51.556;5.080;2023-02-16T07:21:33;101593.63;;;7.01;100.00
36748;BME280;22716;51.556;5.080;2023-02-16T07:24:03;101591.03;;;7.02;100.00
36748;BME280;22716;51.556;5.080;2023-02-16T07:26:32;101593.69;;;7.04;100.00
36748;BME280;22716;51.556;5.080;2023-02-16T07:29:03;101586.72;;;7.03;100.00
36748;BME280;22716;51.556;5.080;2023-02-16T07:31:32;101581.59;;;7.07;100.00
36748;BME280;22716;51.556;5.080;2023-02-16T07:34:03;101574.56;;;7.03;100.00
36748;BME280;22716;51.556;5.080;2023-02-16T07:36:32;101578.13;;;7.08;100.00
36748;BME280;22716;51.556;5.080;2023-02-16T07:39:00;101581.66;;;7.10;100.00
36748;BME280;22716;51.556;5.080;2023-02-16T07:41:29;101580.72;;;7.08;100.00
36748;BME280;22716;51.556;5.080;2023-02-16T07:43:58;101581.66;;;7.10;100.00
36748;BME280;22716;51.556;5.080;2023-02-16T07:46:26;101605.13;;;7.13;100.00
36748;BME280;22716;51.556;5.080;2023-02-16T07:48:55;101603.34;;;7.11;100.00
36748;BME280;22716;51.556;5.080;2023-02-16T07:51:28;101601.66;;;7.13;100.00
36748;BME280;22716;51.556;5.080;2023-02-16T07:53:59;101598.19;;;7.14;100.00
36748;BME280;22716;51.556;5.080;2023-02-16T07:56:29;101593.84;;;7.14;100.00
36748;BME280;22716;51.556;5.080;2023-02-16T07:59:00;101602.53;;;7.15;100.00
36748;BME280;22716;51.556;5.080;2023-02-16T08:01:30;101594.72;;;7.16;100.00
36748;BME280;22716;51.556;5.080;2023-02-16T08:03:59;101609.63;;;7.22;100.00
36748;BME280;22716;51.556;5.080;2023-02-16T08:06:33;101614.84;;;7.23;100.00
36748;BME280;22716;51.556;5.080;2023-02-16T08:09:02;101601.72;;;7.16;100.00
36748;BME280;22716;51.556;5.080;2023-02-16T08:11:31;101619.25;;;7.27;100.00
36748;BME280;22716;51.556;5.080;2023-02-16T08:14:00;101611.44;;;7.29;100.00
36748;BME280;22716;51.556;5.080;2023-02-16T08:16:29;101616.69;;;7.30;100.00
36748;BME280;22716;51.556;5.080;2023-02-16T08:18:59;101620.19;;;7.32;100.00
36748;BME280;22716;51.556;5.080;2023-02-16T08:21:32;101630.66;;;7.36;100.00
36748;BME280;22716;51.556;5.080;2023-02-16T08:24:03;101628.06;;;7.36;100.00
36748;BME280;22716;51.556;5.080;2023-02-16T08:26:34;101617.59;;;7.34;100.00
36748;BME280;22716;51.556;5.080;2023-02-16T08:29:05;101635.09;;;7.40;100.00
36748;BME280;22716;51.556;5.080;2023-02-16T08:31:35;101626.38;;;7.39;100.00
36748;BME280;22716;51.556;5.080;2023-02-16T08:34:07;101610.66;;;7.33;100.00
36748;BME280;22716;51.556;5.080;2023-02-16T08:36:39;101618.50;;;7.36;100.00
36748;BME280;22716;51.556;5.080;2023-02-16T08:39:14;101620.25;;;7.36;100.00
36748;BME280;22716;51.556;5.080;2023-02-16T08:41:44;101621.97;;;7.33;100.00
36748;BME280;22716;51.556;5.080;2023-02-16T08:44:14;101631.59;;;7.39;100.00
36748;BME280;22716;51.556;5.080;2023-02-16T08:46:46;101637.75;;;7.43;100.00
36748;BME280;22716;51.556;5.080;2023-02-16T08:49:16;101626.44;;;7.44;100.00
36748;BME280;22716;51.556;5.080;2023-02-16T08:51:51;101626.47;;;7.47;100.00
36748;BME280;22716;51.556;5.080;2023-02-16T08:54:23;101626.38;;;7.41;100.00
36748;BME280;22716;51.556;5.080;2023-02-16T08:56:55;101646.50;;;7.48;100.00
36748;BME280;22716;51.556;5.080;2023-02-16T08:59:26;101642.16;;;7.48;100.00
36748;BME280;22716;51.556;5.080;2023-02-16T09:01:55;101641.28;;;7.49;100.00
36748;BME280;22716;51.556;5.080;2023-02-16T09:04:25;101648.22;;;7.49;100.00
36748;BME280;22716;51.556;5.080;2023-02-16T09:06:58;101650.94;;;7.55;100.00
36748;BME280;22716;51.556;5.080;2023-02-16T09:09:27;101634.31;;;7.45;100.00
36748;BME280;22716;51.556;5.080;2023-02-16T09:11:56;101647.44;;;7.51;100.00
36748;BME280;22716;51.556;5.080;2023-02-16T09:14:24;101637.00;;;7.53;100.00
36748;BME280;22716;51.556;5.080;2023-02-16T09:16:53;101649.22;;;7.55;100.00
36748;BME280;22716;51.556;5.080;2023-02-16T09:19:22;101650.09;;;7.54;100.00
36748;BME280;22716;51.556;5.080;2023-02-16T09:21:52;101649.16;;;7.52;100.00
36748;BME280;22716;51.556;5.080;2023-02-16T09:24:25;101638.72;;;7.52;100.00
36748;BME280;22716;51.556;5.080;2023-02-16T09:26:54;101644.03;;;7.58;100.00
36748;BME280;22716;51.556;5.080;2023-02-16T09:29:23;101634.47;;;7.59;100.00
36748;BME280;22716;51.556;5.080;2023-02-16T09:31:53;101641.47;;;7.60;100.00
36748;BME280;22716;51.556;5.080;2023-02-16T09:34:22;101635.38;;;7.61;100.00
36748;BME280;22716;51.556;5.080;2023-02-16T09:36:52;101639.78;;;7.65;100.00
36748;BME280;22716;51.556;5.080;2023-02-16T09:42:16;101625.81;;;7.61;100.00
36748;BME280;22716;51.556;5.080;2023-02-16T09:44:53;101617.13;;;7.61;100.00
36748;BME280;22716;51.556;5.080;2023-02-16T09:47:25;101629.34;;;7.65;100.00
36748;BME280;22716;51.556;5.080;2023-02-16T09:49:56;101629.41;;;7.68;100.00
36748;BME280;22716;51.556;5.080;2023-02-16T09:52:34;101640.72;;;7.70;100.00
36748;BME280;22716;51.556;5.080;2023-02-16T09:55:07;101645.88;;;7.65;100.00
36748;BME280;22716;51.556;5.080;2023-02-16T09:57:48;101649.38;;;7.66;100.00
36748;BME280;22716;51.556;5.080;2023-02-16T10:00:28;101642.41;;;7.65;100.00
36748;BME280;22716;51.556;5.080;2023-02-16T10:03:14;101650.28;;;7.68;100.00
36748;BME280;22716;51.556;5.080;2023-02-16T10:05:50;101645.00;;;7.65;100.00
36748;BME280;22716;51.556;5.080;2023-02-16T10:08:24;101633.78;;;7.70;100.00
36748;BME280;22716;51.556;5.080;2023-02-16T10:11:01;101634.66;;;7.71;100.00
36748;BME280;22716;51.556;5.080;2023-02-16T10:13:38;101638.16;;;7.73;100.00
36748;BME280;22716;51.556;5.080;2023-02-16T10:16:16;101634.66;;;7.72;100.00
36748;BME280;22716;51.556;5.080;2023-02-16T10:18:50;101634.66;;;7.72;100.00
36748;BME280;22716;51.556;5.080;2023-02-16T10:21:24;101646.88;;;7.72;100.00
36748;BME280;22716;51.556;5.080;2023-02-16T10:23:58;101639.03;;;7.72;100.00
36748;BME280;22716;51.556;5.080;2023-02-16T10:26:32;101628.56;;;7.69;100.00
36748;BME280;22716;51.556;5.080;2023-02-16T10:29:09;101639.84;;;7.68;100.00
36748;BME280;22716;51.556;5.080;2023-02-16T10:31:40;101641.56;;;7.67;100.00
36748;BME280;22716;51.556;5.080;2023-02-16T10:34:18;101650.34;;;7.74;100.00
36748;BME280;22716;51.556;5.080;2023-02-16T10:37:05;101653.81;;;7.73;100.00
36748;BME280;22716;51.556;5.080;2023-02-16T10:39:47;101649.44;;;7.70;100.00
36748;BME280;22716;51.556;5.080;2023-02-16T10:42:21;101643.38;;;7.73;100.00
36748;BME280;22716;51.556;5.080;2023-02-16T10:45:00;101641.69;;;7.75;100.00
36748;BME280;22716;51.556;5.080;2023-02-16T10:47:32;101637.34;;;7.77;100.00
36748;BME280;22716;51.556;5.080;2023-02-16T10:50:02;101636.56;;;7.82;100.00
36748;BME280;22716;51.556;5.080;2023-02-16T10:52:35;101628.72;;;7.84;100.00
36748;BME280;22716;51.556;5.080;2023-02-16T10:55:05;101630.56;;;7.91;100.00
36748;BME280;22716;51.556;5.080;2023-02-16T10:57:34;101638.50;;;7.97;100.00
36748;BME280;22716;51.556;5.080;2023-02-16T11:00:11;101624.63;;;8.01;100.00
36748;BME280;22716;51.556;5.080;2023-02-16T11:02:45;101631.72;;;8.14;100.00
36748;BME280;22716;51.556;5.080;2023-02-16T11:05:42;101629.19;;;8.20;100.00
36748;BME280;22716;51.556;5.080;2023-02-16T11:08:13;101623.13;;;8.21;100.00
36748;BME280;22716;51.556;5.080;2023-02-16T11:10:46;101630.13;;;8.24;100.00
36748;BME280;22716;51.556;5.080;2023-02-16T11:13:23;101632.00;;;8.32;100.00
36748;BME280;22716;51.556;5.080;2023-02-16T11:15:57;101626.81;;;8.35;100.00
36748;BME280;22716;51.556;5.080;2023-02-16T11:18:33;101630.28;;;8.37;100.00
36748;BME280;22716;51.556;5.080;2023-02-16T11:21:05;101626.94;;;8.48;100.00
36748;BME280;22716;51.556;5.080;2023-02-16T11:23:35;101606.91;;;8.47;100.00
36748;BME280;22716;51.556;5.080;2023-02-16T11:26:10;101610.47;;;8.58;100.00
36748;BME280;22716;51.556;5.080;2023-02-16T11:28:49;101604.38;;;8.56;100.00
36748;BME280;22716;51.556;5.080;2023-02-16T11:31:26;101597.47;;;8.64;100.00
36748;BME280;22716;51.556;5.080;2023-02-16T11:33:59;101591.44;;;8.68;100.00
36748;BME280;22716;51.556;5.080;2023-02-16T11:36:32;101596.78;;;8.81;100.00
36748;BME280;22716;51.556;5.080;2023-02-16T11:39:04;101590.72;;;8.87;100.00
36748;BME280;22716;51.556;5.080;2023-02-16T11:41:35;101583.75;;;8.87;100.00
36748;BME280;22716;51.556;5.080;2023-02-16T11:44:23;101582.06;;;8.95;100.00
36748;BME280;22716;51.556;5.080;2023-02-16T11:46:56;101580.38;;;9.02;100.00
36748;BME280;22716;51.556;5.080;2023-02-16T11:49:31;101581.34;;;9.13;100.00
36748;BME280;22716;51.556;5.080;2023-02-16T11:52:18;101574.41;;;9.17;100.00
36748;BME280;22716;51.556;5.080;2023-02-16T11:54:48;101577.06;;;9.23;100.00
36748;BME280;22716;51.556;5.080;2023-02-16T11:57:22;101577.09;;;9.24;100.00
36748;BME280;22716;51.556;5.080;2023-02-16T11:59:53;101571.91;;;9.33;100.00
36748;BME280;22716;51.556;5.080;2023-02-16T12:02:43;101568.47;;;9.42;100.00
36748;BME280;22716;51.556;5.080;2023-02-16T12:05:24;101571.09;;;9.43;100.00
36748;BME280;22716;51.556;5.080;2023-02-16T12:11:07;101563.31;;;9.55;100.00
36748;BME280;22716;51.556;5.080;2023-02-16T12:13:45;101568.59;;;9.69;100.00
36748;BME280;22716;51.556;5.080;2023-02-16T12:16:26;101563.44;;;9.83;100.00
36748;BME280;22716;51.556;5.080;2023-02-16T12:19:11;101566.09;;;9.89;100.00
36748;BME280;22716;51.556;5.080;2023-02-16T12:21:47;101563.47;;;9.92;100.00
36748;BME280;22716;51.556;5.080;2023-02-16T12:24:27;101549.56;;;10.06;100.00
36748;BME280;22716;51.556;5.080;2023-02-16T12:26:59;101538.22;;;10.12;100.00
36748;BME280;22716;51.556;5.080;2023-02-16T12:29:38;101541.78;;;10.35;100.00
36748;BME280;22716;51.556;5.080;2023-02-16T12:32:23;101539.19;;;10.53;100.00
36748;BME280;22716;51.556;5.080;2023-02-16T12:35:10;101519.09;;;10.55;100.00
36748;BME280;22716;51.556;5.080;2023-02-16T12:37:48;101526.97;;;10.66;100.00
36748;BME280;22716;51.556;5.080;2023-02-16T12:40:27;101526.06;;;10.68;100.00
36748;BME280;22716;51.556;5.080;2023-02-16T12:43:06;101522.59;;;10.68;100.00
36748;BME280;22716;51.556;5.080;2023-02-16T12:45:41;101513.00;;;10.58;100.00
36748;BME280;22716;51.556;5.080;2023-02-16T12:48:21;101518.25;;;10.65;100.00
36748;BME280;22716;51.556;5.080;2023-02-16T12:50:56;101504.25;;;10.66;100.00
36748;BME280;22716;51.556;5.080;2023-02-16T12:53:40;101506.88;;;10.71;100.00
36748;BME280;22716;51.556;5.080;2023-02-16T12:56:16;101503.38;;;10.71;100.00
36748;BME280;22716;51.556;5.080;2023-02-16T12:58:49;101492.00;;;10.72;100.00
36748;BME280;22716;51.556;5.080;2023-02-16T13:01:24;101495.53;;;10.74;100.00
36748;BME280;22716;51.556;5.080;2023-02-16T13:03:57;101490.25;;;10.75;100.00
36748;BME280;22716;51.556;5.080;2023-02-16T13:06:30;101489.38;;;10.75;100.00
36748;BME280;22716;51.556;5.080;2023-02-16T13:09:11;101495.50;;;10.83;100.00
36748;BME280;22716;51.556;5.080;2023-02-16T13:11:47;101494.63;;;11.00;100.00
36748;BME280;22716;51.556;5.080;2023-02-16T13:14:20;101491.97;;;11.08;100.00
36748;BME280;22716;51.556;5.080;2023-02-16T13:16:51;101489.31;;;11.20;100.00
36748;BME280;22716;51.556;5.080;2023-02-16T13:19:22;101476.19;;;11.23;100.00
36748;BME280;22716;51.556;5.080;2023-02-16T13:22:22;101486.66;;;11.29;100.00
36748;BME280;22716;51.556;5.080;2023-02-16T13:25:15;101477.88;;;11.33;100.00
36748;BME280;22716;51.556;5.080;2023-02-16T13:27:57;101475.25;;;11.41;100.00